Date,TemperatureHighF,TemperatureAvgF,TemperatureLowF,DewpointHighF,DewpointAvgF,DewpointLowF,HumidityHigh,HumidityAvg,HumidityLow,PressureMaxIn,PressureMinIn,WindSpeedMaxMPH,WindSpeedAvgMPH,GustSpeedMaxMPH,PrecipitationSumIn
2013-1-1,40.6,38.0,34.0,19.0,16.0,10.9,50,40,31,29.90,29.78,10,4,13,0.00
2013-1-2,34.7,29.4,22.3,12.6,3.7,-7.0,43,34,18,30.11,29.87,12,4,17,0.00
2013-1-3,37.0,28.3,19.2,11.1,4.6,1.2,52,37,22,30.11,30.02,8,2,12,0.00
2013-1-4,39.6,34.0,28.2,9.9,7.4,5.2,42,33,24,30.08,29.99,15,8,25,0.00
2013-1-5,41.5,35.9,30.4,9.8,7.8,4.7,39,31,23,30.25,30.02,15,6,23,0.00
2013-1-6,42.4,36.8,30.0,16.9,12.6,8.5,51,37,29,30.08,29.99,7,2,12,0.00
2013-1-7,41.7,38.0,30.6,17.4,12.4,8.0,46,35,28,30.34,30.08,13,5,17,0.00
2013-1-8,48.9,39.6,31.5,19.7,15.0,10.3,55,37,27,30.34,30.28,10,4,14,0.00
2013-1-9,50.2,37.4,28.0,33.2,23.2,11.5,73,57,36,30.52,30.31,7,2,12,0.00
2013-1-10,50.4,42.8,32.9,19.3,13.4,8.4,49,31,19,31.08,28.13,10,3,15,0.00
2013-1-11,44.1,41.2,38.1,39.0,25.1,11.9,92,57,29,28.13,27.54,12,5,19,0.05
2013-1-12,56.5,47.3,40.1,49.7,39.4,35.7,93,76,47,27.54,27.54,10,3,15,0.05
2013-1-13,59.3,50.6,44.1,55.5,47.3,39.9,93,89,71,27.54,27.54,14,8,23,0.00
2013-1-14,59.0,49.7,38.5,53.9,33.7,15.5,88,57,29,27.54,27.54,8,3,17,0.20
2013-1-15,40.5,37.9,34.2,34.3,28.3,19.5,84,69,47,27.54,27.54,5,1,11,0.59
2013-1-16,39.7,36.1,33.6,35.3,31.1,27.2,85,82,76,27.54,27.54,12,1,16,0.79
2013-1-17,41.2,37.9,33.4,36.4,19.9,10.6,85,49,30,27.54,27.54,8,3,13,0.00
2013-1-18,35.2,31.8,27.6,23.4,3.5,-6.4,66,32,17,27.54,27.54,16,6,25,0.00
2013-1-19,55.2,41.2,29.7,14.7,9.0,4.7,48,28,13,27.54,27.54,10,7,16,0.00
2013-1-20,54.5,43.1,29.8,16.6,3.2,-8.3,29,19,13,27.54,27.54,21,7,30,0.00
2013-1-21,41.2,30.7,24.1,8.0,0.7,-9.4,38,28,19,27.54,27.54,14,5,25,0.00
2013-1-22,24.1,16.5,9.9,-9.7,-17.7,-21.5,23,20,17,27.54,27.54,16,8,28,0.00
2013-1-23,23.9,16.7,7.5,-0.8,-16.7,-23.5,42,21,17,30.42,27.54,12,4,20,0.00
2013-1-24,25.2,18.5,12.1,5.2,-4.5,-17.4,63,39,19,30.49,30.08,12,4,26,0.00
2013-1-25,20.7,16.9,11.5,8.8,-2.8,-14.7,65,43,28,30.49,30.05,8,3,13,0.00
2013-1-26,28.9,23.3,17.6,18.1,11.8,6.4,73,61,47,30.43,30.05,6,1,8,0.00
2013-1-27,34.3,27.8,17.6,16.8,7.2,1.6,70,43,30,30.58,30.43,7,2,10,0.00
2013-1-28,49.8,36.6,30.4,36.2,25.4,8.4,83,65,37,30.43,30.05,9,5,15,0.20
2013-1-29,67.6,58.7,49.5,48.8,37.9,34.1,73,48,33,30.11,29.96,15,5,24,0.00
2013-1-30,68.2,59.8,56.1,53.6,48.2,36.2,87,67,40,29.96,29.28,20,9,29,1.97
2013-1-31,56.8,38.5,28.0,52.7,12.1,-7.3,87,36,20,29.90,29.22,24,12,35,0.54
2013-2-1,30.2,23.0,16.0,16.7,-4.0,-13.1,71,31,22,30.34,29.84,16,8,30,0.00
2013-2-2,27.1,20.1,11.3,13.2,0.1,-11.1,59,42,29,30.34,29.99,9,3,13,0.00
2013-2-3,34.0,27.4,20.8,24.4,14.4,1.1,74,59,32,30.02,29.81,16,3,23,0.00
2013-2-4,34.7,29.0,22.8,16.5,2.5,-2.0,54,32,22,30.08,29.87,15,6,24,0.00
2013-2-5,36.5,33.6,31.1,27.8,19.4,11.6,73,56,40,29.96,29.84,7,2,9,0.00
2013-2-6,40.1,33.4,26.4,27.2,15.6,6.6,75,50,30,30.34,29.93,12,3,17,0.00
2013-2-7,37.2,32.4,24.6,17.0,9.2,6.2,51,38,31,30.40,30.20,10,5,17,0.00
2013-2-8,38.1,34.7,32.3,33.8,21.6,9.5,86,60,38,30.20,29.81,15,5,25,0.00
2013-2-9,37.8,30.1,22.7,10.3,3.2,-6.8,44,32,17,30.38,29.96,17,8,30,0.00
2013-2-10,42.4,32.6,19.4,8.2,2.1,-3.0,52,30,16,30.46,30.20,12,5,22,0.00
2013-2-11,58.1,44.9,34.7,41.5,28.0,3.9,93,59,12,30.20,29.69,17,7,27,0.25
2013-2-12,53.2,44.7,34.2,15.8,9.3,2.5,45,25,16,29.99,29.84,14,6,25,0.00
2013-2-13,41.2,36.3,28.2,25.2,15.4,8.5,72,43,32,29.96,29.69,9,3,14,0.00
2013-2-14,48.2,38.9,28.4,29.0,18.3,9.5,82,48,24,29.99,29.78,9,3,15,0.15
2013-2-15,53.9,41.7,35.2,30.2,19.3,10.3,77,44,21,30.05,29.93,10,4,15,0.15
2013-2-16,36.5,32.9,27.5,29.2,16.1,2.4,83,54,30,30.02,29.87,8,3,13,0.00
2013-2-17,29.2,24.7,19.4,5.5,-1.9,-11.3,48,31,21,30.20,29.87,20,8,29,0.00
2013-2-18,41.9,29.7,14.7,-1.1,-5.2,-11.3,38,23,16,30.34,30.11,13,6,20,0.00
2013-2-19,50.1,39.7,34.5,28.3,12.0,-5.0,61,34,16,30.14,29.69,16,8,25,0.05
2013-2-20,35.5,28.5,23.7,6.5,-3.3,-9.7,31,25,20,30.14,29.87,17,10,35,0.00
2013-2-21,35.6,27.5,23.0,5.9,-1.4,-6.1,47,29,20,30.34,30.11,15,7,25,0.00
2013-2-22,31.1,28.7,23.4,23.8,13.2,4.7,74,53,34,30.38,30.20,9,4,15,0.00
2013-2-23,46.0,37.0,31.1,39.0,29.8,23.0,87,76,53,30.20,29.84,9,3,16,0.00
2013-2-24,46.2,37.1,24.8,34.5,17.6,5.6,84,49,22,30.14,29.81,15,5,23,0.00
2013-2-25,46.0,33.4,21.9,20.1,9.9,3.0,60,39,17,30.23,30.11,7,2,13,0.00
2013-2-26,41.7,36.8,29.7,36.0,21.9,7.7,81,57,32,30.20,29.67,13,5,25,1.38
2013-2-27,53.6,43.1,36.3,39.2,26.6,16.2,90,57,26,29.73,29.55,13,4,24,0.15
2013-2-28,42.4,39.1,31.5,23.9,17.0,12.0,52,41,30,29.75,29.64,12,5,21,0.00
2013-3-1,41.6,37.5,32.4,20.6,14.7,9.3,49,39,28,29.93,29.75,12,6,17,0.00
2013-3-2,34.5,31.7,28.8,11.7,8.6,5.3,43,38,30,29.90,29.84,10,6,17,0.00
2013-3-3,37.2,31.6,28.2,11.2,5.9,1.9,48,34,23,29.93,29.84,15,7,22,0.00
2013-3-4,39.9,31.6,25.7,5.9,1.5,-2.7,42,28,18,30.05,29.93,15,8,25,0.00
2013-3-5,48.6,35.6,23.5,12.4,4.8,-1.6,52,30,14,30.08,29.84,9,3,17,0.00
2013-3-6,39.0,35.3,33.1,31.9,27.9,10.2,87,75,32,30.05,29.69,13,3,18,0.35
2013-3-7,45.1,37.3,28.0,27.2,16.6,11.4,71,45,28,30.20,30.02,15,4,21,0.00
2013-3-8,47.7,39.1,32.4,20.6,14.3,10.1,58,37,24,30.32,30.17,16,7,25,0.00
2013-3-9,58.2,40.4,25.9,21.5,11.9,4.2,63,36,12,30.38,30.26,7,2,11,0.00
2013-3-10,63.0,49.5,32.7,19.6,8.1,2.6,44,21,11,30.32,30.20,12,6,20,0.00
2013-3-11,59.0,50.6,42.1,38.0,27.8,1.2,74,44,14,30.20,29.90,14,8,25,0.00
2013-3-12,57.7,50.0,39.9,49.4,32.1,15.1,85,53,30,29.99,29.78,17,9,30,0.98
2013-3-13,46.8,38.0,29.7,21.6,10.7,2.5,57,34,17,30.08,29.90,18,7,27,0.00
2013-3-14,42.1,34.9,30.4,5.8,0.9,-4.8,33,24,16,30.14,30.05,16,9,30,0.00
2013-3-15,55.4,41.5,26.5,19.7,9.5,0.9,46,28,15,30.11,29.81,12,4,18,0.00
2013-3-16,47.7,41.8,35.8,30.1,24.2,18.5,74,51,36,29.93,29.67,12,3,15,0.00
2013-3-17,39.4,36.5,34.2,29.0,17.2,7.3,75,49,29,30.26,29.93,10,3,15,0.00
2013-3-18,36.1,33.7,30.7,28.6,18.2,6.5,81,56,30,30.29,29.90,9,3,15,0.00
2013-3-19,54.9,40.9,32.7,41.3,18.1,-3.2,89,52,13,29.93,29.75,23,6,36,0.29
2013-3-20,48.9,39.5,28.8,14.9,-0.3,-7.4,42,19,14,29.99,29.75,18,7,35,0.00
2013-3-21,35.6,30.0,23.7,13.6,-1.8,-11.0,41,26,18,29.90,29.78,15,7,25,0.00
2013-3-22,42.4,32.5,21.4,6.1,1.8,-5.9,42,28,18,30.02,29.87,14,6,23,0.00
2013-3-23,50.9,36.3,23.1,17.3,6.8,-1.0,54,32,14,30.02,29.93,14,4,19,0.00
2013-3-24,40.6,34.3,26.8,24.1,11.7,4.0,64,41,23,30.02,29.67,6,2,11,0.00
2013-3-25,36.1,34.0,32.2,31.2,27.1,22.3,83,76,61,29.73,29.55,7,1,9,0.25
2013-3-26,47.5,38.9,32.4,34.0,21.4,6.7,88,56,19,30.02,29.73,9,3,19,0.05
2013-3-27,47.5,40.5,35.6,19.1,14.4,6.4,49,36,19,30.14,30.02,14,7,25,0.00
2013-3-28,46.0,40.2,31.5,21.7,17.0,11.5,57,40,25,30.23,30.08,13,5,25,0.00
2013-3-29,54.7,43.9,36.5,23.1,16.0,3.7,53,35,13,30.26,30.14,10,3,20,0.00
2013-3-30,57.9,44.6,32.2,21.8,11.2,0.0,54,30,12,30.26,30.11,8,3,15,0.00
2013-3-31,50.0,46.0,42.4,42.9,26.2,0.7,85,54,14,30.11,29.78,14,5,19,0.20
2013-4-1,57.4,46.1,31.2,42.3,21.4,-4.2,86,43,16,29.99,29.78,15,4,29,0.00
2013-4-2,45.1,35.3,25.2,11.1,2.5,-5.9,44,26,15,30.20,29.99,13,4,22,0.00
2013-4-3,46.6,34.5,25.2,9.5,3.3,-3.1,47,28,14,30.38,30.17,16,4,28,0.00
2013-4-4,48.2,36.2,21.9,8.0,1.0,-4.7,43,25,14,30.40,30.08,9,3,16,0.00
2013-4-5,62.4,47.6,32.1,28.5,11.8,-1.6,66,30,11,30.08,29.84,16,4,23,0.00
2013-4-6,55.2,43.9,28.9,16.1,4.7,-4.1,47,21,13,30.34,30.08,13,4,17,0.00
2013-4-7,69.3,55.1,40.6,25.5,16.2,0.6,35,22,12,30.23,29.99,16,8,23,0.00
2013-4-8,78.7,68.2,55.0,33.3,22.7,14.4,38,20,10,30.11,29.96,10,4,17,0.00
2013-4-9,82.9,72.8,59.0,39.0,29.1,18.7,41,22,11,30.14,29.96,10,4,15,0.00
2013-4-10,87.1,76.2,62.1,40.4,31.7,23.1,38,21,11,30.02,29.84,14,4,24,0.00
2013-4-11,82.6,69.7,58.0,49.4,40.8,32.3,66,39,17,29.96,29.78,14,5,27,0.00
2013-4-12,67.6,56.6,49.8,54.1,48.7,32.2,87,75,50,29.84,29.64,16,6,23,0.64
2013-4-13,66.6,53.7,42.1,30.3,19.9,8.0,56,29,12,29.99,29.84,14,4,20,0.00
2013-4-14,64.9,52.3,37.2,30.9,18.3,11.3,63,30,13,30.17,29.99,12,4,17,0.00
2013-4-15,64.2,58.2,54.0,38.5,31.7,13.6,46,37,17,30.29,30.14,10,6,15,0.00
2013-4-16,73.8,63.4,54.1,47.3,41.7,31.5,67,47,31,30.32,30.14,13,7,18,0.00
2013-4-17,70.7,63.7,55.6,60.6,47.7,35.4,86,59,34,30.26,30.17,8,3,16,0.25
2013-4-18,74.7,64.3,57.7,59.8,48.2,39.1,88,59,32,30.26,30.02,15,7,20,0.05
2013-4-19,73.6,64.7,51.9,57.9,48.5,26.4,86,57,37,30.02,29.67,16,9,28,1.08
2013-4-20,56.7,49.1,38.8,26.3,12.1,2.7,37,23,13,30.38,29.84,17,7,27,0.00
2013-4-21,53.8,41.6,29.3,20.5,12.1,4.4,56,33,15,30.61,30.38,8,3,14,0.00
2013-4-22,57.5,46.7,35.2,22.3,17.3,11.5,54,32,17,30.58,30.38,10,5,15,0.00
2013-4-23,59.1,47.7,38.8,32.8,26.2,19.7,64,44,26,30.43,30.11,7,3,11,0.00
2013-4-24,75.0,58.4,47.3,52.4,37.7,28.2,75,50,21,30.14,29.78,13,7,25,0.20
2013-4-25,63.0,50.3,40.8,27.9,17.7,6.8,43,29,11,30.32,30.08,12,5,27,0.00
2013-4-26,63.3,49.8,37.0,33.2,19.6,10.2,67,34,13,30.49,30.32,9,3,15,0.00
2013-4-27,69.4,57.4,39.6,28.3,18.9,12.4,50,24,12,30.43,30.29,9,4,15,0.00
2013-4-28,61.5,55.9,51.8,43.5,28.8,16.0,69,38,19,30.29,30.14,12,7,20,0.15
2013-4-29,59.9,55.5,51.6,54.3,48.9,35.9,88,79,49,30.17,30.08,9,4,16,0.15
2013-4-30,59.5,56.4,54.7,52.5,50.5,49.0,85,81,72,30.32,30.11,6,2,12,0.15
2013-5-1,70.3,57.5,45.3,49.0,27.8,9.9,85,43,10,30.43,30.32,7,4,13,0.00
2013-5-2,70.0,55.6,40.8,46.1,31.0,16.7,82,45,14,30.46,30.34,8,4,13,0.00
2013-5-3,67.6,56.3,43.5,38.8,29.8,17.1,67,41,15,30.43,30.32,9,4,15,0.00
2013-5-4,67.7,54.1,38.8,40.3,28.8,16.7,78,44,15,30.38,30.20,9,4,17,0.00
2013-5-5,64.7,52.0,39.6,37.5,27.3,18.4,76,42,18,30.26,30.17,8,3,14,0.00
2013-5-6,61.7,54.8,43.0,52.8,42.8,28.8,79,64,51,30.20,30.08,9,4,15,0.00
2013-5-7,62.8,60.2,58.3,57.0,53.8,51.1,84,79,73,30.11,29.96,8,4,17,1.38
2013-5-8,69.2,60.6,54.9,56.7,48.6,37.7,87,68,32,30.05,29.96,10,3,15,0.25
2013-5-9,71.6,60.0,49.4,52.4,46.3,39.2,86,64,32,30.05,29.96,8,3,13,0.00
2013-5-10,81.5,65.7,54.3,58.5,46.8,31.2,88,57,17,30.05,29.93,9,3,20,0.94
2013-5-11,72.5,64.9,57.4,62.1,53.3,37.2,89,68,34,29.93,29.78,9,3,13,0.59
2013-5-12,60.3,54.7,40.5,45.8,19.7,2.6,61,29,12,30.05,29.81,16,6,25,0.00
2013-5-13,57.2,46.8,36.9,23.9,13.9,1.9,53,30,12,30.20,30.05,13,4,21,0.00
2013-5-14,61.4,48.2,32.5,31.4,20.4,10.2,68,37,14,30.23,30.05,8,3,15,0.00
2013-5-15,82.8,64.3,53.4,49.7,34.7,20.1,52,34,21,30.05,29.73,12,5,18,0.00
2013-5-16,78.1,70.8,60.6,51.8,45.6,41.5,61,41,30,29.99,29.81,9,4,16,0.00
2013-5-17,81.7,68.5,55.8,60.4,41.6,28.3,84,44,17,30.17,29.99,8,3,12,0.00
2013-5-18,68.7,63.0,58.3,51.8,44.1,26.0,79,52,20,30.26,30.14,9,5,16,0.00
2013-5-19,71.3,63.7,58.3,62.0,56.2,51.8,86,77,56,30.26,30.14,8,3,12,0.00
2013-5-20,80.4,71.7,65.3,61.8,56.6,47.7,86,62,32,30.17,30.05,8,4,15,0.00
2013-5-21,86.2,75.4,63.5,64.7,57.2,50.2,84,56,29,30.05,29.90,9,4,13,0.00
2013-5-22,88.7,75.9,65.1,67.0,54.9,40.5,82,54,19,29.99,29.87,9,3,20,0.44
2013-5-23,77.7,68.9,64.6,63.3,57.9,51.3,85,70,42,29.96,29.81,8,3,13,0.20
2013-5-24,64.6,54.2,45.5,58.4,34.0,16.9,86,49,27,30.23,29.81,14,7,27,0.00
2013-5-25,64.0,52.3,41.4,24.6,17.9,8.6,49,28,13,30.23,30.14,15,7,24,0.00
2013-5-26,69.6,55.3,39.6,33.2,21.0,11.8,64,31,12,30.29,30.17,12,4,20,0.00
2013-5-27,66.7,56.6,41.5,41.6,31.8,23.8,68,42,20,30.32,30.23,6,2,9,0.00
2013-5-28,75.3,65.6,55.9,56.5,45.8,33.1,66,50,37,30.23,30.11,8,5,15,0.00
2013-5-29,88.3,77.1,64.0,58.8,48.6,34.5,72,41,15,30.17,30.11,10,4,17,0.00
2013-5-30,89.8,78.9,66.9,59.6,48.7,39.3,67,38,18,30.26,30.14,8,3,13,0.00
2013-5-31,88.3,78.6,64.6,59.1,45.7,31.1,70,35,13,30.20,30.05,10,4,15,0.00
2013-6-1,88.9,79.5,67.2,59.2,48.8,40.8,66,37,19,30.08,29.96,9,5,15,0.00
2013-6-2,81.4,74.5,69.6,63.3,54.4,45.7,72,51,34,29.96,29.87,8,5,14,0.00
2013-6-3,77.7,69.4,57.7,64.4,52.5,39.4,86,59,31,30.02,29.90,8,2,15,0.59
2013-6-4,74.1,61.3,46.6,48.3,35.4,23.7,81,44,16,30.20,30.02,7,3,14,0.00
2013-6-5,78.0,66.1,52.5,51.5,39.2,32.7,71,42,21,30.23,30.08,9,4,15,0.00
2013-6-6,69.3,64.7,62.2,61.5,48.2,28.1,89,59,25,30.11,29.90,12,5,17,0.84
2013-6-7,69.6,65.7,63.0,66.9,62.4,59.5,91,89,86,29.90,29.73,10,2,17,0.64
2013-6-8,76.8,67.9,61.2,62.0,50.1,40.8,88,56,28,30.17,29.78,8,4,12,0.00
2013-6-9,79.3,69.3,59.5,62.3,53.0,42.7,81,59,31,30.26,30.14,13,3,17,0.00
2013-6-10,79.5,70.5,67.6,69.3,63.2,57.3,88,78,50,30.17,29.84,10,5,18,0.59
2013-6-11,78.1,70.7,64.0,65.3,54.9,46.5,87,61,34,29.93,29.84,13,4,21,0.00
2013-6-12,86.4,75.0,64.4,63.0,53.6,43.7,80,51,23,29.93,29.84,8,3,13,0.00
2013-6-13,80.6,72.1,66.7,63.4,54.0,39.1,82,55,31,29.87,29.55,14,6,22,0.49
2013-6-14,76.7,67.4,59.5,50.7,39.5,28.8,69,39,18,30.05,29.69,10,4,17,0.00
2013-6-15,79.3,67.7,56.3,56.3,40.7,22.0,79,44,12,30.14,30.02,9,3,15,0.00
2013-6-16,80.4,70.4,61.9,56.7,46.9,36.1,54,44,31,30.08,29.96,12,2,20,0.00
2013-6-17,84.3,75.2,64.9,60.1,52.6,45.4,70,48,26,30.02,29.93,8,2,12,0.00
2013-6-18,77.1,70.9,64.6,65.2,60.7,56.7,81,70,55,29.99,29.84,7,2,10,0.49
2013-6-19,79.0,68.1,61.2,61.4,50.8,35.4,86,59,22,30.20,29.96,6,2,9,0.34
2013-6-20,78.8,69.9,61.2,65.4,49.8,35.3,88,54,25,30.32,30.20,10,4,16,0.00
2013-6-21,82.6,71.9,63.1,40.3,35.5,29.1,39,27,17,30.34,30.26,10,5,17,0.00
2013-6-22,85.6,75.5,64.9,59.8,50.7,39.2,77,45,23,30.29,30.17,8,5,13,0.00
2013-6-23,87.1,77.0,68.4,69.0,56.6,39.5,87,54,19,30.23,30.11,8,4,13,0.00
2013-6-24,88.3,76.3,67.8,62.2,55.5,47.2,71,50,25,30.20,30.08,7,2,15,0.05
2013-6-25,90.2,79.2,67.1,66.3,56.0,43.4,82,50,20,30.11,29.96,9,2,14,0.00
2013-6-26,85.8,75.1,63.5,65.8,58.3,53.4,86,59,34,29.99,29.90,9,2,12,0.05
2013-6-27,82.4,74.2,68.0,67.4,60.3,52.6,86,64,43,29.90,29.69,13,4,15,0.00
2013-6-28,86.7,74.4,66.7,65.9,54.6,44.5,80,53,24,29.69,29.55,9,2,14,0.00
2013-6-29,85.6,74.0,64.9,59.6,49.5,36.4,77,47,18,29.78,29.61,7,2,12,0.05
2013-6-30,87.1,74.8,65.7,70.9,60.2,49.3,87,64,30,29.93,29.78,9,3,16,0.00
2013-7-1,82.7,75.8,70.9,66.2,59.8,52.6,79,59,36,30.02,29.90,8,5,15,0.00
2013-7-2,83.6,76.3,73.2,66.0,61.8,55.4,76,62,39,30.20,30.02,10,7,17,0.00
2013-7-3,83.8,76.7,72.7,67.9,62.7,57.7,80,63,43,30.29,30.20,12,6,16,0.00
2013-7-4,88.5,80.2,73.6,65.9,59.4,51.1,76,52,30,30.32,30.23,9,6,15,0.00
2013-7-5,88.5,80.8,72.1,66.5,58.5,52.3,79,49,30,30.29,30.17,10,6,15,0.00
2013-7-6,91.9,80.5,71.1,66.3,57.8,47.7,75,49,22,30.26,30.14,8,3,13,0.00
2013-7-7,90.4,76.1,67.8,64.1,58.4,47.2,84,58,28,30.17,30.08,13,2,24,0.64
2013-7-8,85.5,74.1,67.6,69.6,59.1,42.7,88,65,24,30.17,30.11,8,2,23,0.25
2013-7-9,84.7,75.8,69.3,66.0,60.4,52.8,77,61,34,30.20,30.05,7,2,13,0.05
2013-7-10,85.2,78.9,72.1,67.8,60.6,53.7,73,54,34,30.08,29.93,8,3,15,0.00
2013-7-11,83.1,74.9,69.6,64.4,56.1,42.9,81,55,30,30.02,29.93,6,2,8,0.00
2013-7-12,75.0,69.4,64.6,63.7,57.1,47.3,83,66,42,30.11,29.99,6,2,11,0.64
2013-7-13,83.7,74.3,68.0,70.0,60.6,51.5,88,66,35,30.32,30.11,6,2,12,0.20
2013-7-14,89.4,79.6,70.0,70.4,60.3,49.3,85,56,26,30.40,30.32,7,4,12,0.05
2013-7-15,92.3,79.6,69.3,68.8,59.4,46.2,82,55,21,30.38,30.26,7,2,11,0.00
2013-7-16,91.8,81.2,72.7,70.9,57.8,41.5,82,51,18,30.34,30.26,7,2,10,0.00
2013-7-17,93.7,81.6,71.6,69.7,56.2,33.2,80,48,12,30.32,30.17,6,2,12,0.00
2013-7-18,95.0,83.2,72.3,72.1,61.3,48.4,83,52,21,30.20,30.08,8,2,11,0.00
2013-7-19,94.6,82.6,74.5,72.2,61.4,50.0,80,52,23,30.08,29.93,9,2,17,0.00
2013-7-20,90.1,79.1,71.1,64.3,57.3,43.1,70,50,21,29.99,29.87,13,3,27,0.00
2013-7-21,84.0,74.8,68.0,67.5,60.2,52.2,79,63,35,30.02,29.96,8,1,9,0.00
2013-7-22,88.3,75.3,67.6,72.7,62.6,50.5,88,68,28,30.02,29.81,7,2,12,1.13
2013-7-23,84.0,74.8,70.0,71.4,59.9,47.1,89,65,29,29.84,29.73,9,3,15,0.15
2013-7-24,79.2,72.2,64.8,63.0,48.2,33.8,80,47,21,30.02,29.75,9,3,13,0.00
2013-7-25,77.2,65.9,54.3,48.6,41.1,33.0,73,43,21,30.11,29.99,9,3,14,0.00
2013-7-26,82.1,68.9,56.7,59.9,45.3,34.7,84,49,20,30.17,30.08,6,2,11,0.00
2013-7-27,81.5,72.7,65.1,64.2,55.2,41.6,71,55,33,30.11,29.99,9,5,17,0.10
2013-7-28,82.8,73.0,63.7,66.3,58.2,46.4,81,63,30,30.05,29.96,9,4,22,0.54
2013-7-29,78.8,66.8,56.5,61.3,45.9,32.0,87,55,19,30.23,30.05,8,2,12,0.00
2013-7-30,80.4,68.2,57.0,58.6,45.5,35.2,80,49,20,30.29,30.20,8,2,13,0.00
2013-7-31,80.4,70.1,62.1,62.8,55.2,47.7,80,61,34,30.23,30.08,6,2,10,0.00
2013-8-1,80.6,72.2,67.3,67.7,60.3,51.3,85,69,37,30.08,29.90,8,3,15,0.10
2013-8-2,82.6,69.1,62.4,66.5,57.0,36.1,87,70,19,30.05,29.93,9,2,15,0.00
2013-8-9,72.7,71.6,70.9,64.7,64.3,64.0,80,78,76,30.05,29.99,3,0,4,0.00
2013-8-10,83.8,72.8,67.1,67.7,56.8,37.3,88,63,21,30.14,30.05,6,2,8,0.00
2013-8-11,84.9,74.7,65.1,65.7,54.2,42.1,80,53,23,30.20,30.05,8,3,12,0.00
2013-8-12,86.0,76.0,67.1,68.9,56.9,45.8,86,56,25,30.11,29.99,8,2,12,0.00
2013-8-13,83.3,73.9,67.6,67.7,56.3,40.4,86,57,30,29.99,29.81,9,3,15,0.59
2013-8-14,71.8,63.1,52.0,43.7,35.7,29.0,63,38,22,30.17,29.93,10,5,17,0.00
2013-8-15,75.7,61.8,50.5,54.7,39.7,24.4,81,51,15,30.26,30.17,7,2,9,0.00
2013-8-16,79.2,65.3,52.0,53.9,40.4,26.1,78,45,15,30.26,30.17,6,2,12,0.00
2013-8-17,78.9,67.0,54.5,59.3,44.2,35.0,81,49,21,30.32,30.26,8,2,10,0.00
2013-8-18,69.3,64.7,60.6,59.8,53.1,43.9,83,67,42,30.32,30.23,6,2,9,0.10
2013-8-19,76.5,67.0,59.7,62.1,57.3,52.7,85,72,47,30.26,30.14,6,2,8,0.00
2013-8-20,85.1,71.6,63.0,71.5,56.8,40.1,89,66,21,30.26,30.14,7,2,9,0.00
2013-8-21,88.0,74.1,62.6,69.1,56.7,49.6,84,58,28,30.26,30.14,7,2,11,0.00
2013-8-22,85.1,74.5,66.6,66.4,54.8,48.8,81,53,29,30.17,29.99,7,2,12,0.00
2013-8-23,73.2,67.9,62.1,67.0,60.2,53.8,84,77,64,30.20,30.02,5,0,6,0.54
2013-8-24,81.7,67.7,58.3,65.3,49.2,30.4,90,59,16,30.38,30.20,7,2,9,0.00
2013-8-25,81.5,71.1,60.3,59.5,46.2,34.9,76,45,20,30.46,30.32,8,3,12,0.00
2013-8-26,85.8,73.2,62.4,55.7,48.6,40.3,68,45,21,30.34,30.08,8,3,12,0.00
2013-8-27,86.9,75.8,68.5,63.8,57.3,50.8,75,54,30,30.08,29.96,8,2,14,0.00
2013-8-28,74.5,72.0,70.0,69.0,66.1,62.9,86,82,75,29.99,29.90,6,1,9,0.34
2013-8-29,84.9,74.9,68.4,66.6,58.2,48.2,87,60,29,30.08,29.93,6,2,9,0.00
2013-8-30,87.1,76.1,65.6,68.6,58.0,48.0,87,57,26,30.11,29.93,9,4,16,0.00
2013-8-31,89.1,78.1,69.8,68.0,60.0,47.6,76,56,25,29.96,29.87,7,3,13,0.00
2013-9-1,89.7,75.9,67.8,69.4,59.7,51.4,83,61,29,29.93,29.84,8,2,13,0.29
2013-9-2,89.8,76.5,68.9,73.5,60.5,43.1,88,64,21,29.90,29.78,7,2,10,0.05
2013-9-3,80.8,71.7,59.0,62.3,47.3,30.6,81,47,17,30.05,29.81,10,3,17,0.00
2013-9-4,82.0,65.5,54.0,57.3,40.9,22.0,80,48,12,30.17,30.05,7,2,13,0.00
2013-9-5,79.1,66.6,56.5,55.7,41.8,21.6,74,45,13,30.20,30.08,9,3,16,0.00
2013-9-6,74.5,61.4,48.6,45.5,32.5,15.6,70,38,11,30.32,30.20,7,2,12,0.00
2013-9-7,80.5,64.1,49.1,53.6,39.7,28.2,73,44,20,30.20,30.02,6,2,8,0.00
2013-9-8,82.7,71.0,61.7,62.1,48.8,38.0,79,48,29,30.14,29.96,8,3,13,0.05
2013-9-9,76.1,67.0,55.6,56.6,40.1,26.4,61,38,23,30.26,30.14,9,3,13,0.00
2013-9-10,91.4,79.2,68.3,63.3,56.1,46.8,73,49,22,30.23,30.14,9,4,14,0.00
2013-9-11,94.5,81.1,70.5,69.9,59.0,44.0,80,51,18,30.23,30.05,8,2,15,0.00
2013-9-12,91.6,80.6,69.9,70.8,52.0,37.7,84,41,18,30.02,29.81,7,3,13,0.00
2013-9-13,75.0,65.6,51.9,57.3,41.1,24.4,74,44,16,30.02,29.81,9,4,17,0.00
2013-9-14,66.7,54.3,42.6,48.5,32.3,23.5,77,48,20,30.20,30.02,9,3,13,0.00
2013-9-15,76.9,61.2,45.7,51.6,37.0,29.0,77,46,18,30.26,30.14,8,3,13,0.00
2013-9-16,72.4,63.1,54.7,55.8,45.7,37.2,83,55,31,30.29,30.08,12,4,15,0.15
2013-9-17,68.7,56.4,41.4,43.8,28.0,12.2,69,39,12,30.46,30.29,7,3,12,0.00
2013-9-18,71.4,58.5,44.8,45.2,31.9,22.4,69,39,17,30.38,30.23,6,4,9,0.00
2013-9-19,78.1,64.0,51.6,48.8,39.4,31.6,66,42,21,30.23,30.14,6,3,9,0.00
2013-9-20,79.9,68.9,59.2,53.3,47.0,37.6,70,49,23,30.14,29.99,9,5,16,0.00
2013-9-21,69.1,64.7,60.8,60.8,54.7,48.0,85,71,47,29.99,29.75,13,6,20,0.69
2013-9-22,69.6,60.1,49.3,56.7,42.5,26.9,90,59,22,30.02,29.78,9,3,13,0.00
2013-9-23,64.4,55.1,45.3,43.9,33.2,23.8,71,47,23,30.14,30.02,8,2,13,0.00
2013-9-24,71.2,54.3,41.5,51.6,33.8,19.3,83,52,14,30.17,30.02,7,2,10,0.00
2013-9-25,77.0,58.0,44.1,53.2,34.0,15.1,81,48,10,30.05,29.93,7,1,8,0.00
2013-9-26,75.9,58.8,47.3,50.7,36.5,24.6,75,47,15,30.14,29.99,6,2,8,0.00
2013-9-27,72.0,59.9,51.4,51.6,44.9,36.2,77,60,32,30.29,30.14,6,2,8,0.00
2013-9-28,67.5,59.8,51.9,53.3,44.3,33.8,79,60,29,30.38,30.26,8,2,12,0.00
2013-9-29,73.8,58.1,44.2,58.4,40.6,23.4,83,57,16,30.26,30.11,7,2,8,0.00
2013-9-30,75.2,62.1,48.6,55.7,40.3,28.2,77,49,18,30.14,30.05,6,2,8,0.00
2013-10-1,79.9,65.4,53.6,61.2,44.5,34.4,80,52,20,30.14,30.05,7,2,10,0.00
2013-10-2,78.9,63.0,57.7,58.6,50.0,42.6,77,65,28,30.17,30.08,2,0,3,0.00
2013-10-7,66.7,59.0,51.1,59.7,43.0,31.9,86,58,33,30.14,29.84,12,3,17,0.49
2013-10-8,68.0,54.8,44.4,47.2,32.9,20.3,77,47,17,30.34,30.14,7,2,10,0.00
2013-10-9,61.5,53.6,45.5,47.4,34.5,24.3,78,51,25,30.38,30.29,7,2,11,0.00
2013-10-10,54.7,53.1,51.4,51.5,46.9,38.3,90,80,61,30.29,30.08,6,2,11,4.82
2013-10-11,61.5,56.8,53.1,58.9,54.3,50.2,92,91,89,30.08,30.02,8,2,13,1.03
2013-10-12,69.1,62.1,57.4,58.9,49.6,36.8,91,66,33,30.23,30.05,8,2,13,0.34
2013-10-13,58.6,58.1,57.0,54.7,53.3,49.3,88,84,73,30.38,30.23,5,0,8,0.59
2013-10-14,67.7,58.9,52.7,52.4,45.6,38.9,86,64,35,30.38,30.29,7,2,9,0.00
2013-10-15,72.1,58.8,47.8,56.5,41.2,26.2,84,58,19,30.29,30.14,6,2,8,0.00
2013-10-16,69.8,63.3,57.7,56.5,48.8,30.7,82,61,36,30.14,29.96,7,4,14,0.00
2013-10-17,74.7,65.1,58.5,58.3,51.4,34.4,82,63,32,29.96,29.78,10,4,13,0.05
2013-10-18,65.8,55.8,45.9,33.8,26.9,15.8,53,35,15,30.08,29.93,12,4,21,0.00
2013-10-19,62.1,53.7,44.8,48.1,37.4,26.8,74,54,39,30.05,29.81,10,4,15,0.10
2013-10-20,62.1,50.1,38.3,36.6,22.3,11.1,61,36,14,30.14,29.93,12,4,17,0.00
2013-10-21,67.5,53.3,37.9,43.5,23.9,11.7,69,37,12,30.17,29.99,10,4,17,0.00
2013-10-22,60.2,53.0,38.5,37.9,27.6,8.9,54,39,14,29.99,29.87,9,4,15,0.00
2013-10-23,50.2,43.8,37.0,32.1,24.4,18.9,61,47,29,29.93,29.73,8,3,12,0.00
2013-10-24,49.7,41.2,35.0,27.7,18.7,7.2,61,42,19,30.17,29.93,13,4,23,0.00
2013-10-25,52.5,39.3,28.6,30.4,16.9,8.7,74,43,18,30.34,30.17,13,3,22,0.00
2013-10-26,57.6,44.3,31.3,22.1,12.3,4.1,53,32,12,30.34,29.96,9,3,16,0.00
2013-10-27,58.6,46.7,36.1,31.4,16.4,5.4,56,32,14,30.17,29.99,13,3,17,0.00
2013-10-28,60.6,46.6,32.7,33.5,20.6,11.2,59,37,19,30.32,30.17,5,2,8,0.00
2013-10-29,62.8,47.1,34.2,36.9,26.0,19.1,74,46,19,30.43,30.32,5,1,8,0.00
2013-10-30,69.8,58.3,50.4,47.8,35.8,25.9,68,44,25,30.34,30.17,8,4,14,0.05
2013-10-31,67.6,61.4,56.7,56.1,49.9,41.6,89,68,39,30.20,29.78,14,7,25,0.05
2013-11-1,72.9,63.7,52.2,57.0,38.9,14.4,79,45,11,29.78,29.58,21,6,29,0.34
2013-11-2,62.6,53.1,42.6,44.0,29.6,21.0,64,42,25,29.93,29.73,10,3,17,0.00
2013-11-3,55.0,46.6,33.1,29.9,16.1,-1.2,50,32,13,30.49,29.93,9,4,20,0.00
2013-11-4,45.7,35.5,24.6,18.8,9.1,1.7,55,35,17,30.64,30.49,7,2,11,0.00
2013-11-5,54.1,45.4,31.8,31.4,21.2,7.3,51,38,29,30.64,30.46,6,2,10,0.00
2013-11-6,68.5,57.6,46.2,41.4,33.3,28.8,69,41,25,30.46,30.17,14,6,24,0.00
2013-11-7,44.1,41.8,39.4,5.5,4.7,3.1,23,21,20,30.11,30.11,8,4,18,0.00
2013-11-8,48.4,39.9,30.7,19.5,9.2,0.4,47,30,14,30.32,30.11,14,4,22,0.00
2013-11-9,55.4,43.0,28.6,23.8,11.0,3.9,55,31,15,30.34,30.05,10,4,17,0.00
2013-11-10,58.1,48.9,39.2,19.6,10.4,3.1,31,21,14,30.26,29.99,17,6,30,0.00
2013-11-11,57.7,45.7,30.9,25.5,11.6,2.6,57,28,12,30.32,30.05,9,3,15,0.00
2013-11-12,50.4,37.0,24.6,23.3,6.0,-8.8,47,28,17,30.43,30.02,13,6,20,0.00
2013-11-13,41.7,32.5,25.5,10.0,5.1,-4.1,42,32,16,30.49,30.38,12,3,17,0.00
2013-11-14,58.5,40.9,25.5,8.6,2.7,-3.2,42,22,12,30.38,30.23,8,2,10,0.00
2013-11-15,61.1,47.0,32.9,18.3,5.5,-0.9,36,19,11,30.32,30.20,7,2,13,0.00
2013-11-16,57.6,50.2,41.4,47.5,34.9,5.5,88,59,19,30.34,30.26,8,4,13,0.00
2013-11-17,62.2,56.0,50.9,54.0,50.9,47.5,91,83,70,30.26,29.75,16,8,25,0.00
2013-11-18,63.7,57.1,47.5,52.5,15.5,0.6,70,23,11,30.02,29.75,20,8,30,0.10
2013-11-19,47.5,39.9,28.8,13.8,7.6,0.3,52,27,14,30.40,30.02,12,6,21,0.00
2013-11-20,45.9,33.7,24.4,23.1,7.2,-5.8,61,37,15,30.61,30.40,7,2,12,0.00
2013-11-21,48.5,39.2,29.1,29.9,19.7,8.7,57,46,34,30.61,30.40,9,3,15,0.00
2013-11-22,59.4,51.9,44.8,44.4,34.9,24.9,72,53,39,30.40,30.08,9,2,15,0.00
2013-11-23,51.8,38.8,27.1,31.0,8.8,-10.9,48,30,16,30.29,30.11,16,6,32,0.00
2013-11-24,29.5,24.2,16.7,-5.3,-9.6,-13.1,34,22,18,30.55,30.26,14,7,23,0.00
2013-11-25,37.6,26.9,14.4,4.4,-5.0,-10.0,45,26,14,30.61,30.34,12,4,17,0.00
2013-11-26,35.6,33.1,31.3,30.0,15.8,-6.7,84,56,17,30.34,29.73,9,4,13,0.05
2013-11-27,38.7,34.8,27.1,34.1,21.0,0.8,89,61,31,30.08,29.64,13,7,25,0.00
2013-11-28,35.4,29.3,22.6,10.0,0.9,-5.1,42,30,20,30.52,30.08,13,5,23,0.00
2013-11-29,39.7,30.2,23.0,17.1,6.1,-1.3,53,37,21,30.76,30.49,8,3,15,0.00
2013-11-30,35.6,29.2,19.5,8.7,3.9,-2.5,49,34,25,30.76,30.43,7,4,13,0.00
2013-12-1,42.3,34.9,22.3,20.0,11.5,7.3,57,38,29,30.43,30.08,7,3,12,0.00
2013-12-2,45.0,38.8,35.1,27.2,20.1,14.8,58,47,37,30.08,29.93,6,1,9,0.00
2013-12-3,54.5,43.3,34.0,31.9,23.7,17.3,66,47,27,30.05,29.96,8,2,12,0.00
2013-12-4,56.5,48.1,34.6,42.9,29.3,15.8,73,49,35,30.17,30.05,9,4,14,0.00
2013-12-5,66.1,58.2,51.8,52.9,47.7,41.7,87,69,41,30.14,30.02,9,5,13,0.00
2013-12-6,63.3,45.5,36.3,55.3,39.7,32.8,87,80,67,30.29,29.99,8,4,15,2.26
2013-12-7,37.8,34.1,27.5,32.9,19.6,7.4,88,59,31,30.61,30.26,9,4,15,0.00
2013-12-8,28.5,25.4,21.6,22.5,12.9,4.4,78,59,42,30.64,30.40,6,1,9,0.00
2013-12-9,34.7,32.0,28.6,30.4,26.9,22.5,84,81,78,30.40,30.11,5,0,6,0.25
2013-12-10,35.2,30.7,18.0,30.8,19.0,-0.8,89,65,32,30.32,30.08,9,2,15,0.00
2013-12-11,36.9,26.6,17.6,7.7,0.9,-6.1,44,33,19,30.49,30.29,8,2,15,0.10
2013-12-12,29.7,24.6,18.3,9.0,-6.7,-16.6,43,26,15,30.52,30.32,9,5,15,0.00
2013-12-13,39.9,29.4,19.3,9.7,-4.7,-15.3,41,23,16,30.40,30.29,9,4,17,0.00
2013-12-14,36.5,33.3,30.7,30.4,20.4,2.6,86,62,24,30.43,29.87,10,3,15,0.05
2013-12-15,39.4,33.2,29.7,35.8,19.2,6.2,89,61,31,30.05,29.78,13,4,25,0.20
2013-12-16,34.7,30.3,27.0,12.8,8.1,3.1,44,39,34,30.29,30.05,14,5,24,0.00
2013-12-17,38.7,30.9,25.6,24.3,17.2,11.4,68,57,44,30.26,30.05,12,4,17,0.00
2013-12-18,36.5,29.6,23.7,22.7,9.3,2.3,73,44,30,30.34,30.11,12,4,17,0.00
2013-12-19,54.0,41.0,25.2,16.3,8.8,3.9,48,28,15,30.32,30.20,7,2,12,0.00
2013-12-20,56.5,49.3,40.7,16.7,12.1,8.5,37,23,15,30.23,30.14,10,4,14,0.00
2013-12-21,66.9,59.2,50.0,44.6,31.4,14.8,46,35,23,30.17,30.05,13,7,20,0.00
2013-12-22,68.4,64.4,60.8,56.9,48.7,38.5,80,58,35,30.17,29.99,18,7,30,0.20
2013-12-23,61.3,50.5,34.0,52.5,36.0,11.0,85,59,36,30.43,30.11,12,4,20,0.49
2013-12-24,36.7,28.7,20.7,19.0,4.1,-12.0,55,36,18,30.64,30.38,13,5,24,0.00
2013-12-25,30.7,23.3,15.1,1.7,-2.8,-7.1,45,32,20,30.76,30.55,9,4,15,0.00
2013-12-26,43.8,30.9,23.9,11.0,5.1,-3.1,50,35,18,30.55,30.43,15,5,26,0.00
2013-12-27,50.4,34.9,24.1,13.1,4.3,-4.5,46,30,14,30.61,30.52,10,2,15,0.00
2013-12-28,58.3,44.6,32.9,10.0,5.0,-0.2,31,21,12,30.55,30.34,7,2,13,0.00
2013-12-29,48.4,44.5,41.2,42.2,30.4,2.5,87,66,16,30.34,29.84,8,3,13,1.23
2013-12-30,46.2,37.0,24.6,37.6,16.1,5.4,80,43,32,30.43,30.08,12,5,18,0.00
2013-12-31,39.0,30.6,22.1,14.3,4.5,-4.9,49,34,19,30.58,30.34,22,5,32,0.00
2014-1-1,46.2,34.9,22.3,15.0,8.4,3.0,47,34,20,30.64,30.38,9,4,15,0.00
2014-1-2,37.6,30.0,23.9,24.5,17.8,10.2,82,61,38,30.38,29.93,8,1,10,0.00